| time (UTC) | temp C | wind direction | speed KPH | gust KPH | rain 1hr cm | rain 24hr cm | rain mn cm | humidity % | barometer mb |
| 20260503230712 | 21 | 246 | 11.3 | 25.7 | 0.00 | 0.00 | 0.00 | 59 | 1008.7 |
| 20260503230211 | 21 | 282 | 11.3 | 25.7 | 0.00 | 0.00 | 0.00 | 58 | 1008.7 |
| 20260503225207 | 21 | 273 | 11.3 | 25.7 | 0.00 | 0.00 | 0.00 | 57 | 1008.9 |
| 20260503224707 | 21 | 253 | 9.7 | 24.1 | 0.00 | 0.00 | 0.00 | 56 | 1008.9 |
| 20260503224206 | 21 | 247 | 9.7 | 22.5 | 0.00 | 0.00 | 0.00 | 56 | 1009.0 |
| 20260503223707 | 21 | 283 | 9.7 | 22.5 | 0.00 | 0.00 | 0.00 | 56 | 1009.0 |
| 20260503223207 | 21 | 281 | 8.0 | 19.3 | 0.00 | 0.00 | 0.00 | 55 | 1009.1 |
| 20260503222707 | 22 | 285 | 9.7 | 17.7 | 0.00 | 0.00 | 0.00 | 56 | 1009.2 |
| 20260503222207 | 22 | 259 | 9.7 | 17.7 | 0.00 | 0.00 | 0.00 | 55 | 1009.3 |
| 20260503221706 | 22 | 279 | 9.7 | 24.1 | 0.00 | 0.00 | 0.00 | 55 | 1009.3 |
| 20260503221207 | 22 | 291 | 9.7 | 24.1 | 0.00 | 0.00 | 0.00 | 55 | 1009.3 |
| 20260503220706 | 22 | 238 | 9.7 | 24.1 | 0.00 | 0.00 | 0.00 | 55 | 1009.3 |
| 20260503220206 | 22 | 304 | 9.7 | 24.1 | 0.00 | 0.00 | 0.00 | 53 | 1009.3 |
| 20260503215706 | 22 | 286 | 9.7 | 19.3 | 0.00 | 0.00 | 0.00 | 52 | 1009.4 |
| 20260503215206 | 22 | 279 | 8.0 | 19.3 | 0.00 | 0.00 | 0.00 | 53 | 1009.4 |
| 20260503214707 | 22 | 294 | 9.7 | 20.9 | 0.00 | 0.00 | 0.00 | 54 | 1009.5 |
| 20260503214207 | 22 | 276 | 9.7 | 20.9 | 0.00 | 0.00 | 0.00 | 52 | 1009.5 |
| 20260503213706 | 22 | 266 | 9.7 | 20.9 | 0.00 | 0.00 | 0.00 | 52 | 1009.5 |
| 20260503213207 | 22 | 263 | 9.7 | 20.9 | 0.00 | 0.00 | 0.00 | 52 | 1009.6 |
| 20260503212705 | 22 | 274 | 9.7 | 20.9 | 0.00 | 0.00 | 0.00 | 51 | 1009.6 |
| 20260503212200 | 23 | 276 | 8.0 | 19.3 | 0.00 | 0.00 | 0.00 | 50 | 1009.6 |
| 20260503211146 | 23 | 275 | 9.7 | 19.3 | 0.00 | 0.00 | 0.00 | 50 | 1009.6 |
| 20260503210640 | 23 | 290 | 9.7 | 19.3 | 0.00 | 0.00 | 0.00 | 49 | 1009.7 |
| 20260503210133 | 23 | 211 | 8.0 | 19.3 | 0.00 | 0.00 | 0.00 | 47 | 1009.6 |
| 20260503205628 | 23 | 272 | 8.0 | 19.3 | 0.00 | 0.00 | 0.00 | 48 | 1009.7 |
| 20260503205122 | 23 | 292 | 9.7 | 19.3 | 0.00 | 0.00 | 0.00 | 49 | 1009.7 |
| 20260503204117 | 24 | 287 | 6.4 | 19.3 | 0.00 | 0.00 | 0.00 | 47 | 1009.8 |
| 20260503203616 | 24 | 286 | 6.4 | 16.1 | 0.00 | 0.00 | 0.00 | 49 | 1009.9 |
| 20260503203117 | 23 | 251 | 6.4 | 16.1 | 0.00 | 0.00 | 0.00 | 50 | 1009.9 |
| 20260503202616 | 23 | 240 | 6.4 | 17.7 | 0.00 | 0.00 | 0.00 | 51 | 1010.0 |
| 20260503202117 | 23 | 294 | 6.4 | 17.7 | 0.00 | 0.00 | 0.00 | 50 | 1010.0 |
| 20260503201115 | 23 | 269 | 6.4 | 17.7 | 0.00 | 0.00 | 0.00 | 51 | 1010.1 |
| 20260503200612 | 23 | 286 | 6.4 | 16.1 | 0.00 | 0.00 | 0.00 | 52 | 1010.2 |
| 20260503200112 | 23 | 243 | 8.0 | 16.1 | 0.00 | 0.00 | 0.00 | 52 | 1010.3 |
| 20260503195613 | 23 | 234 | 6.4 | 14.5 | 0.00 | 0.00 | 0.00 | 50 | 1010.3 |
| 20260503194612 | 23 | 279 | 8.0 | 16.1 | 0.00 | 0.00 | 0.00 | 51 | 1010.4 |
| 20260503194118 | 23 | 253 | 6.4 | 16.1 | 0.00 | 0.00 | 0.00 | 50 | 1010.4 |
| 20260503193617 | 24 | 292 | 4.8 | 11.3 | 0.00 | 0.00 | 0.00 | 51 | 1010.3 |
| 20260503193111 | 24 | 286 | 4.8 | 11.3 | 0.00 | 0.00 | 0.00 | 50 | 1010.4 |
| 20260503192109 | 24 | 284 | 4.8 | 11.3 | 0.00 | 0.00 | 0.00 | 52 | 1010.5 |
| 20260503191603 | 24 | 281 | 4.8 | 11.3 | 0.00 | 0.00 | 0.00 | 52 | 1010.5 |
| 20260503191058 | 25 | 279 | 4.8 | 11.3 | 0.00 | 0.00 | 0.00 | 48 | 1010.6 |
| 20260503190551 | 25 | 259 | 3.2 | 11.3 | 0.00 | 0.00 | 0.00 | 51 | 1010.6 |
| 20260503190045 | 25 | 235 | 1.6 | 6.4 | 0.00 | 0.00 | 0.00 | 49 | 1010.6 |
| 20260503185539 | 25 | 257 | 1.6 | 6.4 | 0.00 | 0.00 | 0.00 | 52 | 1010.6 |
| 20260503185034 | 25 | 141 | 3.2 | 9.7 | 0.00 | 0.00 | 0.00 | 56 | 1010.6 |
| 20260503184527 | 25 | 131 | 4.8 | 9.7 | 0.00 | 0.00 | 0.00 | 55 | 1010.7 |
| 20260503184022 | 25 | 130 | 4.8 | 9.7 | 0.00 | 0.00 | 0.00 | 54 | 1010.7 |
| 20260503182505 | 25 | 98 | 4.8 | 12.9 | 0.00 | 0.00 | 0.00 | 57 | 1010.8 |
| 20260503181958 | 24 | 102 | 4.8 | 11.3 | 0.00 | 0.00 | 0.00 | 52 | 1010.9 |
| 20260503181451 | 24 | 123 | 4.8 | 11.3 | 0.00 | 0.00 | 0.00 | 53 | 1010.9 |
| 20260503175934 | 24 | 119 | 4.8 | 11.3 | 0.00 | 0.00 | 0.00 | 54 | 1011.0 |
| 20260503175427 | 24 | 50 | 4.8 | 11.3 | 0.00 | 0.00 | 0.00 | 59 | 1011.1 |
| 20260503174922 | 24 | 92 | 4.8 | 12.9 | 0.00 | 0.00 | 0.00 | 56 | 1011.1 |
| 20260503173909 | 23 | 112 | 6.4 | 14.5 | 0.00 | 0.00 | 0.00 | 56 | 1011.1 |
| 20260503173403 | 23 | 92 | 4.8 | 16.1 | 0.00 | 0.00 | 0.00 | 61 | 1011.1 |
| 20260503172352 | 22 | 73 | 6.4 | 12.9 | 0.00 | 0.00 | 0.00 | 61 | 1011.2 |
| 20260503171845 | 22 | 65 | 6.4 | 12.9 | 0.00 | 0.00 | 0.00 | 61 | 1011.2 |
| 20260503171339 | 22 | 100 | 6.4 | 14.5 | 0.00 | 0.00 | 0.00 | 62 | 1011.2 |
| 20260503170833 | 22 | 71 | 6.4 | 14.5 | 0.00 | 0.00 | 0.00 | 63 | 1011.2 |
| 20260503170327 | 21 | 92 | 6.4 | 14.5 | 0.00 | 0.00 | 0.00 | 65 | 1011.1 |
| 20260503160216 | 19 | 78 | 6.4 | 14.5 | 0.00 | 0.00 | 0.00 | 68 | 1011.5 |
| 20260503150634 | 14 | 75 | 3.2 | 9.7 | 0.00 | 0.00 | 0.00 | 90 | 1011.7 |
| 20260503140128 | 11 | 5 | 1.6 | 4.8 | 0.00 | 0.00 | 0.00 | 91 | 1011.3 |
| 20260503090209 | 11 | 76 | 4.8 | 6.4 | 0.00 | 0.00 | 0.00 | 90 | 1012.0 |
| 20260503081615 | 11 | 101 | 1.6 | 4.8 | 0.00 | 0.00 | 0.00 | 90 | 1012.2 |
| 20260503081108 | 11 | 88 | 1.6 | 4.8 | 0.00 | 0.00 | 0.00 | 90 | 1012.2 |
| 20260503080603 | 11 | 112 | 1.6 | 4.8 | 0.00 | 0.00 | 0.00 | 90 | 1012.1 |
| 20260503072516 | 11 | 84 | 1.6 | 4.8 | 0.00 | 0.00 | 0.00 | 90 | 1012.2 |
| 20260503072008 | 11 | 96 | 1.6 | 4.8 | 0.00 | 0.00 | 0.00 | 90 | 1012.1 |
| 20260503071503 | 11 | 110 | 3.2 | 4.8 | 0.00 | 0.00 | 0.00 | 90 | 1012.2 |
| 20260503070957 | 11 | 74 | 1.6 | 4.8 | 0.00 | 0.00 | 0.00 | 90 | 1012.2 |
| 20260503070451 | 11 | 114 | 0.0 | 4.8 | 0.00 | 0.00 | 0.00 | 90 | 1012.2 |
| 20260503060340 | 10 | 15 | 0.0 | 0.0 | 0.00 | 0.00 | 0.00 | 90 | 1012.3 |
| 20260503054822 | 10 | 15 | 0.0 | 3.2 | 0.00 | 0.00 | 0.00 | 90 | 1012.4 |
| 20260503053810 | 10 | 15 | 0.0 | 0.0 | 0.00 | 0.00 | 0.00 | 90 | 1012.3 |
| 20260503053304 | 10 | 15 | 0.0 | 3.2 | 0.00 | 0.00 | 0.00 | 90 | 1012.3 |
| 20260503052757 | 10 | 15 | 1.6 | 4.8 | 0.00 | 0.00 | 0.00 | 90 | 1012.4 |
| 20260503052251 | 10 | 348 | 1.6 | 4.8 | 0.00 | 0.00 | 0.00 | 89 | 1012.4 |
| 20260503051745 | 10 | 348 | 1.6 | 4.8 | 0.00 | 0.00 | 0.00 | 89 | 1012.4 |
| 20260503051240 | 10 | 0 | 1.6 | 4.8 | 0.00 | 0.00 | 0.00 | 89 | 1012.3 |
| 20260503050733 | 10 | 292 | 1.6 | 6.4 | 0.00 | 0.00 | 0.00 | 89 | 1012.3 |
| 20260503045722 | 10 | 239 | 1.6 | 3.2 | 0.00 | 0.00 | 0.00 | 89 | 1012.2 |
| 20260503045215 | 10 | 321 | 0.0 | 3.2 | 0.00 | 0.00 | 0.00 | 89 | 1012.1 |
| 20260503044216 | 10 | 322 | 0.0 | 3.2 | 0.00 | 0.00 | 0.00 | 89 | 1012.1 |
| 20260503043716 | 10 | 322 | 0.0 | 3.2 | 0.00 | 0.00 | 0.00 | 89 | 1012.1 |
| 20260503042214 | 10 | 355 | 1.6 | 4.8 | 0.00 | 0.00 | 0.00 | 89 | 1012.0 |
| 20260503041712 | 10 | 269 | 1.6 | 11.3 | 0.00 | 0.00 | 0.00 | 89 | 1011.9 |
| 20260503041210 | 10 | 346 | 3.2 | 11.3 | 0.00 | 0.00 | 0.00 | 89 | 1011.9 |
| 20260503040707 | 10 | 275 | 4.8 | 11.3 | 0.00 | 0.00 | 0.00 | 89 | 1011.8 |
| 20260503040207 | 10 | 246 | 6.4 | 12.9 | 0.00 | 0.00 | 0.00 | 89 | 1011.8 |
| 20260503035708 | 10 | 255 | 6.4 | 12.9 | 0.00 | 0.00 | 0.00 | 89 | 1011.8 |
| 20260503035208 | 10 | 290 | 4.8 | 11.3 | 0.00 | 0.00 | 0.00 | 89 | 1011.7 |
| 20260503034707 | 11 | 303 | 4.8 | 11.3 | 0.00 | 0.00 | 0.00 | 89 | 1011.8 |
| 20260503034208 | 11 | 236 | 3.2 | 12.9 | 0.00 | 0.00 | 0.00 | 89 | 1011.7 |
| 20260503033703 | 11 | 240 | 1.6 | 12.9 | 0.00 | 0.00 | 0.00 | 89 | 1011.6 |
| 20260503033204 | 11 | 254 | 3.2 | 12.9 | 0.00 | 0.00 | 0.00 | 89 | 1011.5 |
| 20260503032703 | 11 | 283 | 4.8 | 12.9 | 0.00 | 0.00 | 0.00 | 88 | 1011.4 |
| 20260503031704 | 11 | 271 | 4.8 | 16.1 | 0.00 | 0.00 | 0.00 | 88 | 1011.6 |
| 20260503030704 | 11 | 250 | 4.8 | 16.1 | 0.00 | 0.00 | 0.00 | 88 | 1011.5 |
| 20260503030204 | 11 | 336 | 6.4 | 16.1 | 0.00 | 0.00 | 0.00 | 88 | 1011.5 |
| 20260503025202 | 11 | 270 | 4.8 | 14.5 | 0.00 | 0.00 | 0.00 | 88 | 1011.5 |
| 20260503024702 | 11 | 277 | 4.8 | 14.5 | 0.00 | 0.00 | 0.00 | 88 | 1011.5 |
| 20260503024202 | 11 | 248 | 4.8 | 14.5 | 0.00 | 0.00 | 0.00 | 88 | 1011.4 |
| 20260503023201 | 11 | 273 | 6.4 | 16.1 | 0.00 | 0.00 | 0.00 | 87 | 1011.5 |
| 20260503022701 | 11 | 236 | 8.0 | 19.3 | 0.00 | 0.00 | 0.00 | 87 | 1011.5 |
| 20260503022201 | 11 | 280 | 8.0 | 19.3 | 0.00 | 0.00 | 0.00 | 87 | 1011.4 |
| 20260503020701 | 11 | 350 | 8.0 | 19.3 | 0.00 | 0.00 | 0.00 | 87 | 1011.3 |
| 20260503020159 | 11 | 309 | 4.8 | 19.3 | 0.00 | 0.00 | 0.00 | 87 | 1011.3 |
| 20260503014647 | 11 | 101 | 8.0 | 19.3 | 0.00 | 0.00 | 0.00 | 86 | 1011.5 |
| 20260503014141 | 11 | 286 | 6.4 | 19.3 | 0.00 | 0.00 | 0.00 | 86 | 1011.5 |
| 20260503013637 | 11 | 280 | 4.8 | 16.1 | 0.00 | 0.00 | 0.00 | 86 | 1011.5 |
| 20260503013129 | 11 | 223 | 4.8 | 12.9 | 0.00 | 0.00 | 0.00 | 86 | 1011.5 |
| 20260503012623 | 11 | 279 | 6.4 | 20.9 | 0.00 | 0.00 | 0.00 | 86 | 1011.5 |
| 20260503012117 | 11 | 275 | 8.0 | 24.1 | 0.00 | 0.00 | 0.00 | 85 | 1011.5 |
| 20260503011610 | 11 | 282 | 9.7 | 24.1 | 0.00 | 0.00 | 0.00 | 85 | 1011.6 |
| 20260503011105 | 11 | 290 | 9.7 | 22.5 | 0.00 | 0.00 | 0.00 | 85 | 1011.7 |
| 20260503010559 | 12 | 271 | 8.0 | 16.1 | 0.00 | 0.00 | 0.00 | 85 | 1011.7 |
| 20260503010052 | 12 | 267 | 8.0 | 17.7 | 0.00 | 0.00 | 0.00 | 85 | 1011.8 |
| 20260503005041 | 12 | 299 | 6.4 | 17.7 | 0.00 | 0.00 | 0.00 | 84 | 1011.9 |
| 20260503004534 | 12 | 338 | 8.0 | 19.3 | 0.00 | 0.00 | 0.00 | 83 | 1011.9 |
| 20260503003523 | 12 | 253 | 8.0 | 22.5 | 0.00 | 0.00 | 0.00 | 82 | 1011.8 |
| 20260503003016 | 12 | 339 | 8.0 | 17.7 | 0.00 | 0.00 | 0.00 | 82 | 1011.9 |
| 20260503002510 | 13 | 277 | 8.0 | 19.3 | 0.00 | 0.00 | 0.00 | 82 | 1011.8 |
| 20260503001459 | 13 | 355 | 8.0 | 17.7 | 0.00 | 0.00 | 0.00 | 81 | 1011.8 |
| 20260503000953 | 13 | 273 | 6.4 | 20.9 | 0.00 | 0.00 | 0.00 | 80 | 1011.8 |
| 20260503000447 | 13 | 242 | 6.4 | 20.9 | 0.00 | 0.00 | 0.00 | 80 | 1011.9 |
| 20260502235941 | 13 | 301 | 6.4 | 20.9 | 0.00 | 0.00 | 0.00 | 81 | 1012.0 |
| 20260502235435 | 13 | 235 | 9.7 | 22.5 | 0.00 | 0.00 | 0.00 | 80 | 1012.0 |
| 20260502234929 | 13 | 260 | 8.0 | 22.5 | 0.00 | 0.00 | 0.00 | 79 | 1012.1 |
| 20260502234423 | 14 | 255 | 6.4 | 19.3 | 0.00 | 0.00 | 0.00 | 80 | 1012.2 |
| 20260502233917 | 13 | 253 | 8.0 | 24.1 | 0.00 | 0.00 | 0.00 | 80 | 1012.3 |
| 20260502233411 | 13 | 271 | 9.7 | 24.1 | 0.00 | 0.00 | 0.00 | 79 | 1012.3 |
| 20260502232904 | 13 | 261 | 9.7 | 20.9 | 0.00 | 0.00 | 0.00 | 79 | 1012.3 |
| 20260502232358 | 14 | 259 | 9.7 | 24.1 | 0.00 | 0.00 | 0.00 | 79 | 1012.4 |
| 20260502231853 | 14 | 285 | 8.0 | 25.7 | 0.00 | 0.00 | 0.00 | 79 | 1012.4 |
| 20260502231346 | 14 | 298 | 6.4 | 25.7 | 0.00 | 0.00 | 0.00 | 79 | 1012.5 |